Time;durP1;ratioP1;P1;durP2;ratioP2;P2;SDS_P1;SDS_P2;PMS_P1;PMS_P2;Temp;Humidity;BMP_temperature;BMP_pressure;BME280_temperature;BME280_humidity;BME280_pressure;Samples;Min_cycle;Max_cycle;Signal;HPM_P1;HPM_P2
2021/12/31 00:00:28;;;;;;;3.63;2.17;;;24.40;40.10;;;;;;5011090;28;20071;-46
2021/12/31 00:02:54;;;;;;;3.28;2.10;;;24.40;40.30;;;;;;5005670;28;20087;-47
2021/12/31 00:05:20;;;;;;;3.03;1.80;;;24.40;40.20;;;;;;5011437;28;20108;-46
2021/12/31 00:07:45;;;;;;;3.08;1.73;;;24.40;40.10;;;;;;5016146;28;20056;-46
2021/12/31 00:10:12;;;;;;;3.30;1.88;;;24.40;40.30;;;;;;5022358;28;20013;-46
2021/12/31 00:12:40;;;;;;;3.20;1.98;;;24.40;40.20;;;;;;5018287;28;20025;-46
2021/12/31 00:15:06;;;;;;;3.30;2.25;;;24.40;40.00;;;;;;5006333;28;20109;-45
2021/12/31 00:17:32;;;;;;;3.50;2.03;;;24.40;40.10;;;;;;5019341;28;20735;-45
2021/12/31 00:20:02;;;;;;;3.47;2.03;;;24.30;40.20;;;;;;5022721;28;20020;-45
2021/12/31 00:24:54;;;;;;;3.53;2.13;;;24.30;40.30;;;;;;5022827;28;20025;-45
2021/12/31 00:27:20;;;;;;;4.40;2.70;;;24.30;40.10;;;;;;5024546;28;20041;-45
2021/12/31 00:29:45;;;;;;;4.30;2.33;;;24.30;40.10;;;;;;5022144;28;20043;-45
2021/12/31 00:32:12;;;;;;;4.55;2.80;;;24.30;40.70;;;;;;5021932;28;20127;-45
2021/12/31 00:34:38;;;;;;;4.68;2.25;;;24.30;41.30;;;;;;5025665;28;20028;-45
2021/12/31 00:37:04;;;;;;;3.70;2.22;;;24.20;41.20;;;;;;5024296;28;20018;-46
2021/12/31 00:39:29;;;;;;;3.72;2.00;;;24.20;41.20;;;;;;5025058;28;20029;-45
2021/12/31 00:41:55;;;;;;;3.53;1.77;;;24.20;41.30;;;;;;5023663;28;20030;-45
2021/12/31 00:44:21;;;;;;;8.10;2.08;;;24.20;41.40;;;;;;5016562;28;20025;-46
2021/12/31 00:46:47;;;;;;;3.63;1.70;;;24.20;41.20;;;;;;5024008;28;20068;-45
2021/12/31 00:49:14;;;;;;;3.05;1.70;;;24.20;41.00;;;;;;5010238;28;20029;-46
2021/12/31 00:51:40;;;;;;;4.55;1.85;;;24.20;40.80;;;;;;5029208;28;20037;-45
2021/12/31 00:54:05;;;;;;;3.63;1.20;;;24.20;40.60;;;;;;5016844;28;20028;-46
2021/12/31 00:56:31;;;;;;;3.13;1.63;;;24.20;40.50;;;;;;5005535;28;20105;-46
2021/12/31 00:58:57;;;;;;;2.80;1.60;;;24.10;40.50;;;;;;5004985;28;20022;-45
2021/12/31 01:01:24;;;;;;;2.67;1.45;;;24.20;40.20;;;;;;5004711;28;20149;-45
2021/12/31 01:03:50;;;;;;;3.10;1.70;;;24.20;40.20;;;;;;5005032;28;20033;-45
2021/12/31 01:06:16;;;;;;;2.45;1.40;;;24.10;40.10;;;;;;5004899;28;20105;-45
2021/12/31 01:08:42;;;;;;;2.53;1.45;;;24.10;40.10;;;;;;5005754;28;20033;-46
2021/12/31 01:11:08;;;;;;;3.22;1.60;;;24.10;40.00;;;;;;5004799;28;20038;-45
2021/12/31 01:16:39;;;;;;;2.13;1.30;;;24.10;39.90;;;;;;5004007;28;20034;-45
2021/12/31 01:21:33;;;;;;;2.65;1.50;;;24.10;39.80;;;;;;5020536;28;20029;-45
2021/12/31 01:24:00;;;;;;;2.72;1.40;;;24.10;39.80;;;;;;5010925;28;20669;-45
2021/12/31 01:26:27;;;;;;;2.92;1.40;;;24.10;39.80;;;;;;5022595;28;20029;-45
2021/12/31 01:28:53;;;;;;;2.72;1.55;;;24.00;39.70;;;;;;5022376;28;20037;-46
2021/12/31 01:31:21;;;;;;;2.88;1.33;;;24.00;39.60;;;;;;5011647;28;20688;-45
2021/12/31 01:33:46;;;;;;;3.40;1.40;;;24.00;39.60;;;;;;5024771;28;20623;-46
2021/12/31 01:36:12;;;;;;;2.38;1.23;;;24.00;39.60;;;;;;5008134;28;20080;-46
2021/12/31 01:38:38;;;;;;;2.17;1.23;;;24.00;39.50;;;;;;5004994;28;20026;-45
2021/12/31 01:41:04;;;;;;;3.35;1.50;;;24.00;39.60;;;;;;5004908;28;20104;-45
2021/12/31 01:43:29;;;;;;;2.38;1.35;;;24.00;39.50;;;;;;5005160;28;20487;-45
2021/12/31 01:46:00;;;;;;;3.45;1.35;;;24.00;39.50;;;;;;5005278;28;20040;-46
2021/12/31 01:48:47;;;;;;;2.88;1.45;;;24.00;39.50;;;;;;5014230;28;20037;-45
2021/12/31 01:51:13;;;;;;;2.35;1.38;;;23.90;39.50;;;;;;5015783;28;20389;-45
2021/12/31 01:53:39;;;;;;;3.75;1.40;;;23.90;39.50;;;;;;5024771;28;20034;-45
2021/12/31 01:56:06;;;;;;;2.05;1.00;;;23.90;39.40;;;;;;5025444;28;20663;-46
2021/12/31 01:58:33;;;;;;;2.53;1.17;;;23.90;39.50;;;;;;5024921;28;20037;-45
2021/12/31 02:01:03;;;;;;;2.25;1.15;;;23.90;39.40;;;;;;5007071;28;20058;-45
2021/12/31 02:03:32;;;;;;;2.40;1.42;;;23.90;39.40;;;;;;5005381;28;20029;-45
2021/12/31 02:05:58;;;;;;;2.78;1.40;;;23.90;39.40;;;;;;5005390;28;20033;-45
2021/12/31 02:08:23;;;;;;;2.70;1.13;;;23.90;39.40;;;;;;5005373;28;20521;-45
2021/12/31 02:10:51;;;;;;;3.15;1.33;;;23.90;39.40;;;;;;5005018;28;20034;-45
2021/12/31 02:13:18;;;;;;;2.03;1.08;;;23.90;39.40;;;;;;5004825;28;20101;-45
2021/12/31 02:15:44;;;;;;;2.65;1.23;;;23.90;39.40;;;;;;5004966;28;20065;-45
2021/12/31 02:18:10;;;;;;;1.85;1.10;;;23.80;39.20;;;;;;5005183;28;20037;-45
2021/12/31 02:20:44;;;;;;;1.75;1.00;;;23.80;39.40;;;;;;5005020;28;20029;-45
2021/12/31 02:23:18;;;;;;;2.20;1.05;;;23.80;39.30;;;;;;5004454;28;20050;-45
2021/12/31 02:25:44;;;;;;;5.78;1.52;;;23.80;39.40;;;;;;5016047;28;20143;-45
2021/12/31 02:28:10;;;;;;;1.60;1.00;;;23.80;39.40;;;;;;5018805;28;20529;-45
2021/12/31 02:30:36;;;;;;;2.33;1.40;;;23.80;39.40;;;;;;5023223;28;20069;-46
2021/12/31 02:33:03;;;;;;;1.83;0.98;;;23.80;39.30;;;;;;5024580;28;20438;-45
2021/12/31 02:35:30;;;;;;;2.28;1.10;;;23.80;39.30;;;;;;5024072;28;20100;-45
2021/12/31 02:37:56;;;;;;;2.50;1.02;;;23.80;39.40;;;;;;5024595;28;20637;-45
2021/12/31 02:40:23;;;;;;;1.50;1.00;;;23.80;39.30;;;;;;5018782;28;20050;-46
2021/12/31 02:42:49;;;;;;;1.63;0.80;;;23.80;39.20;;;;;;5004644;28;20022;-45
2021/12/31 02:45:15;;;;;;;2.47;1.20;;;23.80;39.20;;;;;;5005018;28;20037;-46
2021/12/31 02:47:46;;;;;;;3.08;1.13;;;23.80;39.20;;;;;;5004625;28;20022;-45
2021/12/31 02:50:30;;;;;;;1.67;0.88;;;23.70;39.20;;;;;;5017661;28;20029;-45
2021/12/31 02:52:56;;;;;;;1.42;0.70;;;23.70;39.20;;;;;;5043522;28;20033;-45
2021/12/31 02:55:24;;;;;;;2.47;0.95;;;23.70;39.20;;;;;;5044638;28;20028;-46
2021/12/31 02:57:51;;;;;;;2.22;1.00;;;23.70;39.20;;;;;;5043884;28;20021;-45
2021/12/31 03:00:17;;;;;;;1.88;0.80;;;23.70;39.20;;;;;;5025974;28;20075;-45
2021/12/31 03:02:43;;;;;;;2.13;0.85;;;23.70;39.20;;;;;;5011444;28;20033;-45
2021/12/31 03:05:09;;;;;;;1.75;0.85;;;23.70;39.20;;;;;;5016640;28;20048;-45
2021/12/31 03:07:37;;;;;;;1.67;0.95;;;23.70;39.20;;;;;;5024291;28;20030;-45
2021/12/31 03:10:05;;;;;;;1.80;0.77;;;23.70;39.20;;;;;;5021085;28;20084;-46
2021/12/31 03:12:31;;;;;;;1.88;1.05;;;23.70;39.20;;;;;;5004372;28;20113;-46
2021/12/31 03:14:57;;;;;;;1.80;0.98;;;23.70;39.20;;;;;;5003676;28;20105;-45
2021/12/31 03:17:24;;;;;;;1.52;1.00;;;23.60;39.20;;;;;;5004292;28;20022;-45
2021/12/31 03:20:08;;;;;;;1.75;0.90;;;23.60;39.20;;;;;;5004637;28;20033;-46
2021/12/31 03:22:34;;;;;;;1.80;0.80;;;23.60;39.10;;;;;;5004028;28;20034;-45
2021/12/31 03:25:00;;;;;;;1.58;0.70;;;23.60;39.10;;;;;;5004344;28;20038;-45
2021/12/31 03:27:25;;;;;;;2.28;0.80;;;23.60;39.20;;;;;;5004390;28;20091;-45
2021/12/31 03:29:51;;;;;;;2.47;1.00;;;23.60;39.20;;;;;;5004212;28;20030;-45
2021/12/31 03:32:17;;;;;;;1.63;0.77;;;23.60;39.20;;;;;;5004134;28;20053;-45
2021/12/31 03:34:42;;;;;;;1.38;0.77;;;23.60;39.10;;;;;;5007123;28;20029;-45
2021/12/31 03:37:08;;;;;;;1.25;0.70;;;23.60;39.10;;;;;;5006560;28;20022;-45
2021/12/31 03:39:34;;;;;;;1.73;0.82;;;23.50;39.10;;;;;;5007806;28;20163;-46
2021/12/31 03:41:59;;;;;;;1.80;0.75;;;23.50;39.10;;;;;;5007922;28;20037;-45
2021/12/31 03:44:25;;;;;;;1.45;0.80;;;23.50;39.10;;;;;;5007623;28;20026;-45
2021/12/31 03:46:51;;;;;;;1.30;0.60;;;23.50;39.10;;;;;;5007933;28;20026;-46
2021/12/31 03:49:16;;;;;;;1.70;0.80;;;23.50;39.10;;;;;;5008731;28;20030;-46
2021/12/31 03:51:42;;;;;;;2.05;0.98;;;23.50;39.10;;;;;;5046626;28;20668;-48
2021/12/31 03:54:08;;;;;;;1.38;0.70;;;23.50;39.10;;;;;;5046419;28;20021;-45
2021/12/31 03:56:34;;;;;;;1.45;0.70;;;23.50;39.10;;;;;;5047510;28;20021;-45
2021/12/31 03:59:00;;;;;;;1.58;0.90;;;23.50;39.10;;;;;;5047059;28;20028;-45
2021/12/31 04:01:27;;;;;;;1.02;0.60;;;23.50;39.20;;;;;;5008728;28;20044;-45
2021/12/31 04:03:53;;;;;;;2.08;0.88;;;23.50;39.10;;;;;;5007130;28;20112;-46
2021/12/31 04:06:21;;;;;;;1.40;0.70;;;23.50;39.10;;;;;;5007116;28;20081;-45
2021/12/31 04:08:47;;;;;;;1.25;0.50;;;23.50;39.10;;;;;;5007341;28;20030;-45
2021/12/31 04:11:13;;;;;;;1.33;0.57;;;23.50;39.10;;;;;;5007498;28;20034;-45
2021/12/31 04:13:39;;;;;;;2.03;0.77;;;23.50;39.10;;;;;;5007335;28;20041;-47
2021/12/31 04:16:05;;;;;;;1.48;0.60;;;23.50;39.20;;;;;;5007388;28;20490;-45
2021/12/31 04:18:31;;;;;;;1.42;0.88;;;23.50;39.30;;;;;;5007818;28;20033;-45
2021/12/31 04:20:58;;;;;;;1.42;0.60;;;23.50;39.20;;;;;;5006063;28;20112;-45
2021/12/31 04:23:36;;;;;;;1.73;0.70;;;23.50;39.20;;;;;;5007389;28;20022;-46
2021/12/31 04:26:02;;;;;;;1.05;0.60;;;23.40;39.10;;;;;;5006995;28;20075;-45
2021/12/31 04:28:29;;;;;;;1.17;0.68;;;23.40;39.10;;;;;;5007118;28;20107;-44
2021/12/31 04:30:56;;;;;;;1.13;0.63;;;23.40;39.00;;;;;;5011889;28;20034;-46
2021/12/31 04:33:22;;;;;;;1.20;0.60;;;23.40;39.10;;;;;;5006700;28;20032;-45
2021/12/31 04:35:48;;;;;;;0.80;0.50;;;23.40;39.10;;;;;;5006239;28;20301;-46
2021/12/31 04:38:13;;;;;;;1.30;0.65;;;23.40;39.10;;;;;;5006706;28;20034;-45
2021/12/31 04:40:39;;;;;;;1.25;0.63;;;23.40;39.10;;;;;;5007202;28;20458;-45
2021/12/31 04:43:05;;;;;;;1.50;0.80;;;23.40;39.10;;;;;;5006592;28;20105;-45
2021/12/31 04:45:31;;;;;;;2.05;0.80;;;23.40;39.00;;;;;;5006813;28;20076;-45
2021/12/31 04:47:56;;;;;;;1.60;0.68;;;23.40;39.10;;;;;;5006818;28;20137;-45
2021/12/31 04:50:22;;;;;;;1.50;0.55;;;23.40;39.00;;;;;;5023524;28;20036;-45
2021/12/31 04:52:48;;;;;;;1.52;0.77;;;23.40;39.10;;;;;;5046061;28;20029;-45
2021/12/31 04:55:14;;;;;;;1.05;0.50;;;23.40;39.10;;;;;;5046475;28;20111;-45
2021/12/31 04:57:42;;;;;;;1.45;0.60;;;23.30;39.10;;;;;;5046105;28;20044;-45
2021/12/31 05:00:08;;;;;;;0.82;0.50;;;23.30;39.10;;;;;;5030017;28;20030;-45
2021/12/31 05:02:33;;;;;;;1.15;0.60;;;23.30;39.10;;;;;;5006090;28;20042;-45
2021/12/31 05:05:01;;;;;;;0.88;0.50;;;23.30;39.00;;;;;;5006309;28;20097;-45
2021/12/31 05:07:27;;;;;;;1.63;0.73;;;23.30;39.10;;;;;;5006652;28;20686;-45
2021/12/31 05:09:53;;;;;;;1.20;0.50;;;23.30;39.10;;;;;;5005946;28;20492;-45
2021/12/31 05:12:25;;;;;;;1.02;0.52;;;23.30;39.10;;;;;;5004136;28;20030;-45
2021/12/31 05:14:50;;;;;;;0.60;0.40;;;23.30;39.10;;;;;;5005730;28;20084;-46
2021/12/31 05:17:16;;;;;;;1.08;0.47;;;23.30;39.30;;;;;;5005973;28;20030;-45
2021/12/31 05:19:44;;;;;;;1.08;0.55;;;23.30;39.40;;;;;;5005907;28;20454;-46
2021/12/31 05:22:12;;;;;;;1.10;0.60;;;23.30;39.50;;;;;;5005561;28;20095;-45
2021/12/31 05:24:39;;;;;;;0.70;0.40;;;23.30;39.50;;;;;;5005053;28;20360;-45
2021/12/31 05:27:05;;;;;;;1.83;0.70;;;23.30;39.50;;;;;;5005615;28;20653;-46
2021/12/31 05:29:32;;;;;;;0.90;0.50;;;23.30;39.70;;;;;;5004910;28;20088;-45
2021/12/31 05:31:58;;;;;;;1.30;0.55;;;23.40;39.70;;;;;;5005168;28;20053;-45
2021/12/31 05:34:23;;;;;;;0.93;0.52;;;23.40;39.80;;;;;;5005387;28;20022;-46
2021/12/31 05:36:49;;;;;;;1.23;0.50;;;23.50;39.90;;;;;;5005195;28;20067;-46
2021/12/31 05:39:15;;;;;;;1.35;0.55;;;23.50;39.90;;;;;;5005437;28;20029;-46
2021/12/31 05:41:41;;;;;;;0.70;0.47;;;23.60;39.80;;;;;;5005482;28;20034;-45
2021/12/31 05:44:07;;;;;;;0.98;0.40;;;23.60;39.80;;;;;;5005330;28;20038;-45
2021/12/31 05:46:33;;;;;;;0.80;0.40;;;23.70;39.80;;;;;;5005845;28;20045;-45
2021/12/31 05:48:59;;;;;;;0.50;0.35;;;23.70;39.80;;;;;;5004966;28;20018;-46
2021/12/31 05:51:26;;;;;;;0.85;0.50;;;23.80;39.70;;;;;;5039209;28;20029;-46
2021/12/31 05:53:52;;;;;;;0.77;0.40;;;23.80;39.60;;;;;;5043097;28;20017;-46
2021/12/31 05:56:18;;;;;;;0.85;0.40;;;23.90;39.60;;;;;;5043565;28;20021;-46
2021/12/31 05:58:44;;;;;;;0.55;0.40;;;23.90;39.60;;;;;;5044437;28;20029;-46
2021/12/31 06:01:10;;;;;;;0.52;0.30;;;24.00;39.40;;;;;;5014452;28;20701;-46
2021/12/31 06:03:35;;;;;;;0.60;0.30;;;24.00;39.40;;;;;;5004763;28;20037;-46
2021/12/31 06:06:01;;;;;;;0.65;0.40;;;24.00;39.30;;;;;;5004429;28;20029;-45
2021/12/31 06:08:27;;;;;;;0.38;0.25;;;24.10;39.30;;;;;;5003211;28;20030;-45
2021/12/31 06:10:53;;;;;;;0.70;0.32;;;24.10;39.30;;;;;;5004592;28;20065;-45
2021/12/31 06:13:19;;;;;;;1.08;0.30;;;24.10;39.20;;;;;;5003491;28;20046;-46
2021/12/31 06:15:47;;;;;;;0.55;0.30;;;24.20;39.20;;;;;;5004239;28;20066;-45
2021/12/31 06:18:13;;;;;;;1.45;0.50;;;24.30;39.20;;;;;;5004390;28;20123;-46
2021/12/31 06:20:41;;;;;;;0.80;0.40;;;24.30;39.10;;;;;;5003924;28;20057;-45
2021/12/31 06:23:07;;;;;;;1.00;0.40;;;24.30;39.00;;;;;;5004137;28;20032;-45
2021/12/31 06:25:33;;;;;;;1.38;0.60;;;24.40;39.00;;;;;;5008079;28;20026;-46
2021/12/31 06:28:01;;;;;;;0.73;0.40;;;24.40;38.90;;;;;;5018054;28;20029;-46
2021/12/31 06:30:27;;;;;;;0.98;0.40;;;24.40;38.80;;;;;;5011849;28;20692;-46
2021/12/31 06:32:53;;;;;;;0.95;0.40;;;24.50;38.80;;;;;;5013786;28;20080;-46
2021/12/31 06:35:18;;;;;;;0.93;0.32;;;24.50;38.70;;;;;;5024571;28;20026;-45
2021/12/31 06:37:44;;;;;;;1.08;0.35;;;24.50;38.70;;;;;;5024074;28;20025;-46
2021/12/31 06:40:12;;;;;;;1.25;0.40;;;24.60;38.60;;;;;;5019451;28;20559;-46
2021/12/31 06:42:38;;;;;;;0.88;0.40;;;24.60;38.50;;;;;;5018846;28;20040;-46
2021/12/31 06:45:04;;;;;;;1.25;0.50;;;24.60;38.50;;;;;;5018461;28;20026;-46
2021/12/31 06:47:31;;;;;;;0.77;0.43;;;24.70;38.50;;;;;;5004147;28;20029;-46
2021/12/31 06:49:56;;;;;;;0.75;0.30;;;24.70;38.40;;;;;;5013691;28;20048;-46
2021/12/31 06:52:22;;;;;;;0.90;0.30;;;24.70;38.30;;;;;;5043961;28;20045;-46
2021/12/31 06:54:47;;;;;;;0.95;0.38;;;24.70;38.30;;;;;;5041599;28;20192;-45
2021/12/31 06:57:14;;;;;;;1.90;0.68;;;24.80;38.20;;;;;;5043657;28;20104;-46
2021/12/31 06:59:39;;;;;;;1.00;0.40;;;24.70;38.20;;;;;;5038858;28;20709;-46
2021/12/31 07:02:06;;;;;;;1.67;0.45;;;24.80;38.20;;;;;;5003857;28;20049;-45
2021/12/31 07:04:31;;;;;;;1.83;0.50;;;24.80;38.20;;;;;;5003484;28;20521;-45
2021/12/31 07:06:57;;;;;;;1.20;0.50;;;24.80;38.10;;;;;;5004533;28;20068;-45
2021/12/31 07:09:23;;;;;;;1.50;0.32;;;24.80;38.10;;;;;;5023711;28;20025;-46
2021/12/31 07:11:48;;;;;;;1.15;0.40;;;24.80;38.10;;;;;;5027066;28;20036;-45
2021/12/31 07:14:14;;;;;;;0.90;0.40;;;24.80;38.10;;;;;;5027297;28;20053;-45
2021/12/31 07:16:40;;;;;;;3.05;0.57;;;24.90;38.50;;;;;;5024805;28;20032;-44
2021/12/31 07:19:05;;;;;;;1.42;0.60;;;24.90;38.50;;;;;;5027332;28;20017;-44
2021/12/31 07:21:31;;;;;;;0.98;0.40;;;24.90;38.60;;;;;;5027741;28;20026;-44
2021/12/31 07:23:57;;;;;;;1.77;0.50;;;24.90;38.70;;;;;;5025921;28;20469;-44
2021/12/31 07:26:23;;;;;;;1.05;0.35;;;24.90;38.40;;;;;;5027300;28;20103;-44
2021/12/31 07:28:48;;;;;;;0.73;0.30;;;24.90;38.30;;;;;;5027776;28;20030;-45
2021/12/31 07:31:14;;;;;;;1.83;0.50;;;25.00;38.30;;;;;;5013225;28;20433;-45
2021/12/31 07:33:41;;;;;;;0.70;0.40;;;25.00;38.30;;;;;;5006632;28;20026;-46
2021/12/31 07:36:07;;;;;;;1.58;0.60;;;25.00;38.20;;;;;;5014021;28;20048;-46
2021/12/31 07:38:37;;;;;;;1.27;0.50;;;25.00;38.20;;;;;;5015869;28;20022;-45
2021/12/31 07:41:03;;;;;;;1.15;0.50;;;25.00;38.10;;;;;;5016288;28;20033;-45
2021/12/31 07:43:30;;;;;;;1.65;0.60;;;25.00;38.00;;;;;;5015748;28;20034;-45
2021/12/31 07:45:56;;;;;;;1.60;0.63;;;25.10;37.90;;;;;;5010281;28;20065;-45
2021/12/31 07:48:23;;;;;;;4.90;0.50;;;25.10;37.90;;;;;;5024659;28;20080;-45
2021/12/31 07:50:49;;;;;;;1.20;0.45;;;25.10;37.90;;;;;;5027353;28;20033;-46
2021/12/31 07:53:16;;;;;;;1.77;0.63;;;25.10;38.00;;;;;;5024804;28;20397;-46
2021/12/31 07:55:42;;;;;;;1.45;0.40;;;25.10;38.00;;;;;;5026016;28;20021;-46
2021/12/31 07:58:08;;;;;;;3.85;0.63;;;25.10;38.00;;;;;;5026520;28;20022;-45
2021/12/31 08:00:34;;;;;;;3.47;0.90;;;25.10;38.20;;;;;;5018700;28;20089;-46
2021/12/31 08:03:01;;;;;;;1.80;0.85;;;25.20;38.20;;;;;;5006275;28;20068;-45
2021/12/31 08:05:29;;;;;;;2.13;0.70;;;25.20;38.30;;;;;;5022110;28;20029;-46
2021/12/31 08:07:55;;;;;;;4.78;1.02;;;25.20;38.20;;;;;;5025550;28;20037;-46
2021/12/31 08:10:21;;;;;;;2.47;0.90;;;25.20;38.20;;;;;;5002512;28;20036;-46
2021/12/31 08:12:47;;;;;;;3.28;0.90;;;25.20;38.10;;;;;;5004999;28;20080;-45
2021/12/31 08:15:13;;;;;;;3.83;0.90;;;25.20;38.10;;;;;;5007604;28;20046;-45
2021/12/31 08:17:39;;;;;;;2.20;0.73;;;25.20;38.10;;;;;;5024168;28;20547;-46
2021/12/31 08:20:05;;;;;;;2.85;0.98;;;25.20;38.10;;;;;;5024962;28;20026;-46
2021/12/31 08:22:31;;;;;;;3.10;0.70;;;25.20;38.00;;;;;;5005231;28;20036;-46
2021/12/31 08:24:57;;;;;;;2.88;0.90;;;25.20;38.00;;;;;;5005976;28;20113;-46
2021/12/31 08:27:23;;;;;;;4.28;1.10;;;25.30;38.00;;;;;;5006173;28;20642;-46
2021/12/31 08:29:49;;;;;;;4.90;1.38;;;25.20;38.00;;;;;;5005316;28;20625;-46
2021/12/31 08:32:15;;;;;;;3.20;0.90;;;25.20;38.00;;;;;;5006641;28;20069;-46
2021/12/31 08:34:40;;;;;;;3.80;1.23;;;25.20;38.00;;;;;;5017199;28;20322;-46
2021/12/31 08:37:06;;;;;;;3.15;1.00;;;25.30;38.00;;;;;;5020526;28;20784;-45
2021/12/31 08:39:32;;;;;;;4.05;1.30;;;25.20;38.00;;;;;;5025130;28;20029;-46
2021/12/31 08:42:00;;;;;;;3.25;0.90;;;25.30;38.00;;;;;;5007993;28;20438;-46
2021/12/31 08:44:26;;;;;;;3.22;0.90;;;25.30;37.90;;;;;;5023919;28;20705;-46
2021/12/31 08:46:52;;;;;;;6.60;1.13;;;25.30;37.90;;;;;;5012376;28;20061;-46
2021/12/31 08:49:19;;;;;;;3.55;0.90;;;25.30;38.00;;;;;;5023841;28;20064;-46
2021/12/31 08:51:45;;;;;;;5.55;1.08;;;25.30;38.20;;;;;;5043461;28;20029;-47
2021/12/31 08:54:11;;;;;;;4.18;1.05;;;25.30;38.30;;;;;;5043318;28;20083;-45
2021/12/31 08:56:36;;;;;;;3.63;1.08;;;25.30;38.40;;;;;;5043867;28;20045;-46
2021/12/31 08:59:03;;;;;;;5.38;1.15;;;25.30;38.60;;;;;;5043476;28;20029;-46
2021/12/31 09:01:29;;;;;;;3.17;1.10;;;25.30;38.80;;;;;;4975797;28;1155524;-46
2021/12/31 09:03:55;;;;;;;3.75;1.27;;;25.30;38.80;;;;;;5004750;28;20053;-46
2021/12/31 09:06:21;;;;;;;3.88;1.35;;;25.30;38.70;;;;;;5005799;28;20040;-45
2021/12/31 09:08:47;;;;;;;5.13;1.50;;;25.30;38.60;;;;;;5005488;28;20712;-45
2021/12/31 09:11:13;;;;;;;3.63;1.13;;;25.40;38.60;;;;;;5010663;28;20048;-45
2021/12/31 09:13:41;;;;;;;4.80;0.98;;;25.40;38.60;;;;;;5022003;28;20017;-46
2021/12/31 09:16:07;;;;;;;5.13;1.08;;;25.40;38.60;;;;;;5023733;28;20026;-45
2021/12/31 09:18:33;;;;;;;4.60;1.00;;;25.40;38.60;;;;;;5023023;28;20033;-45
2021/12/31 09:20:59;;;;;;;4.82;1.20;;;25.30;38.60;;;;;;5024144;28;20155;-45
2021/12/31 09:23:25;;;;;;;8.18;1.20;;;25.30;38.50;;;;;;5024777;28;20085;-45
2021/12/31 09:25:51;;;;;;;1.65;0.70;;;25.30;38.50;;;;;;5024313;28;20034;-45
2021/12/31 09:28:17;;;;;;;2.75;0.93;;;25.30;38.40;;;;;;5023691;28;20029;-46
2021/12/31 09:30:43;;;;;;;3.97;1.17;;;25.30;38.40;;;;;;5022346;28;20029;-45
2021/12/31 09:33:09;;;;;;;3.35;1.00;;;25.30;38.30;;;;;;5022991;28;20021;-45
2021/12/31 09:35:36;;;;;;;4.10;1.20;;;25.30;38.30;;;;;;5023674;28;20026;-46
2021/12/31 09:38:08;;;;;;;4.15;1.15;;;25.30;38.40;;;;;;5023319;28;20025;-46
2021/12/31 09:40:37;;;;;;;3.80;0.75;;;25.30;38.40;;;;;;5023331;28;20071;-45
2021/12/31 09:43:09;;;;;;;2.92;0.82;;;25.30;38.50;;;;;;5022434;28;20437;-46
2021/12/31 09:45:37;;;;;;;2.80;1.20;;;25.30;38.60;;;;;;5022090;28;20543;-46
2021/12/31 09:48:23;;;;;;;3.20;1.02;;;25.30;38.70;;;;;;5022047;28;20028;-46
2021/12/31 09:50:55;;;;;;;2.80;0.90;;;25.30;38.90;;;;;;5023710;28;20028;-46
2021/12/31 09:53:23;;;;;;;3.47;1.10;;;25.30;38.90;;;;;;5021471;28;20034;-46
2021/12/31 09:55:53;;;;;;;3.05;1.10;;;25.30;39.00;;;;;;5023500;28;20021;-46
2021/12/31 09:58:25;;;;;;;3.88;0.95;;;25.30;39.10;;;;;;5022494;28;20033;-45
2021/12/31 10:00:57;;;;;;;2.70;0.90;;;25.30;39.10;;;;;;5022290;28;20034;-46
2021/12/31 10:03:25;;;;;;;;;;;25.30;39.10;;;;;;5023601;28;20041;-46
2021/12/31 10:05:55;;;;;;;3.30;0.70;;;25.30;39.50;;;;;;5022000;28;20361;-46
2021/12/31 10:08:29;;;;;;;3.22;1.00;;;25.20;39.10;;;;;;5023775;28;20088;-46
2021/12/31 10:11:07;;;;;;;2.38;1.00;;;25.20;39.20;;;;;;5022326;28;20030;-46
2021/12/31 10:13:35;;;;;;;3.63;0.98;;;25.20;39.20;;;;;;5005845;28;20030;-46
2021/12/31 10:16:01;;;;;;;4.22;1.40;;;25.20;39.20;;;;;;5021834;28;20051;-46
2021/12/31 10:18:35;;;;;;;3.13;1.15;;;25.20;39.20;;;;;;5024000;28;20099;-46
2021/12/31 10:21:03;;;;;;;1.95;0.60;;;25.20;39.40;;;;;;5023030;28;20702;-46
2021/12/31 10:23:29;;;;;;;2.28;0.90;;;25.20;39.30;;;;;;5023631;28;20025;-45
2021/12/31 10:26:07;;;;;;;3.08;1.02;;;25.20;39.20;;;;;;5024155;28;20029;-46
2021/12/31 10:28:33;;;;;;;2.58;0.93;;;25.20;39.20;;;;;;5023457;28;20075;-45
2021/12/31 10:31:13;;;;;;;2.65;0.90;;;25.20;39.30;;;;;;5015440;28;20109;-46
2021/12/31 10:33:43;;;;;;;2.13;0.80;;;25.20;39.30;;;;;;5004029;28;20037;-45
2021/12/31 10:36:08;;;;;;;1.77;0.70;;;25.20;39.40;;;;;;5004006;28;20026;-45
2021/12/31 10:38:39;;;;;;;3.28;0.73;;;25.20;39.30;;;;;;5004484;28;20030;-46
2021/12/31 10:41:06;;;;;;;2.33;0.80;;;25.20;39.30;;;;;;5002005;28;20413;-46
2021/12/31 10:43:31;;;;;;;2.47;0.90;;;25.20;39.40;;;;;;5003837;28;20038;-46
2021/12/31 10:46:05;;;;;;;2.33;0.90;;;25.20;39.30;;;;;;5002057;28;20041;-46
2021/12/31 10:48:41;;;;;;;2.40;1.00;;;25.20;39.20;;;;;;5019042;28;20552;-46
2021/12/31 10:51:09;;;;;;;3.28;1.02;;;25.20;39.20;;;;;;5021572;28;20033;-46
2021/12/31 10:53:37;;;;;;;2.17;0.60;;;25.20;39.20;;;;;;5021351;28;20022;-46
2021/12/31 10:56:11;;;;;;;1.63;0.80;;;25.20;39.20;;;;;;5023292;28;20425;-46
2021/12/31 10:58:39;;;;;;;1.63;0.80;;;25.20;39.30;;;;;;5021362;28;20044;-46
2021/12/31 11:01:10;;;;;;;2.25;0.70;;;25.10;39.30;;;;;;5021391;28;20069;-45
2021/12/31 11:03:38;;;;;;;3.00;0.95;;;25.10;39.30;;;;;;5021716;28;20084;-46
2021/12/31 11:06:06;;;;;;;3.60;1.05;;;25.10;39.30;;;;;;5022764;28;20057;-46
2021/12/31 11:08:32;;;;;;;2.60;0.80;;;25.10;39.40;;;;;;5018830;28;20041;-46
2021/12/31 11:11:01;;;;;;;3.72;0.90;;;25.10;39.30;;;;;;5021119;28;20034;-45
2021/12/31 11:13:30;;;;;;;2.03;0.70;;;25.10;39.40;;;;;;5022363;28;20550;-45
2021/12/31 11:15:57;;;;;;;2.30;0.80;;;25.10;39.40;;;;;;5020911;28;20025;-47
2021/12/31 11:18:23;;;;;;;2.58;0.60;;;25.10;39.40;;;;;;5023324;28;20083;-45
2021/12/31 11:20:55;;;;;;;3.80;0.60;;;25.10;39.50;;;;;;5022621;28;20648;-46
2021/12/31 11:23:29;;;;;;;2.90;0.70;;;25.10;39.50;;;;;;5022530;28;20527;-46
2021/12/31 11:26:06;;;;;;;3.38;1.10;;;25.10;39.60;;;;;;5022260;28;20022;-45
2021/12/31 11:28:34;;;;;;;1.80;0.77;;;25.10;39.60;;;;;;5021503;28;20032;-45
2021/12/31 11:31:18;;;;;;;3.35;0.65;;;25.10;39.70;;;;;;5022139;28;20041;-46
2021/12/31 11:33:45;;;;;;;2.25;0.70;;;25.10;39.70;;;;;;5020066;28;20410;-45
2021/12/31 11:36:12;;;;;;;3.85;1.10;;;25.10;39.80;;;;;;5022629;28;20022;-46
2021/12/31 11:38:39;;;;;;;2.20;0.68;;;25.10;39.80;;;;;;5022177;28;20048;-47
2021/12/31 11:41:13;;;;;;;3.08;0.90;;;25.10;39.90;;;;;;5022305;28;20025;-47
2021/12/31 11:43:43;;;;;;;2.08;0.55;;;25.10;39.80;;;;;;5020953;28;20102;-47
2021/12/31 11:46:09;;;;;;;5.10;0.75;;;25.10;39.90;;;;;;5021163;28;20100;-47
2021/12/31 11:48:48;;;;;;;2.47;0.70;;;25.10;39.80;;;;;;5023246;28;20572;-47
2021/12/31 11:51:19;;;;;;;2.20;0.70;;;25.10;39.80;;;;;;5023363;28;20033;-46
2021/12/31 11:54:00;;;;;;;3.20;0.82;;;25.10;40.00;;;;;;5021985;28;20030;-48
2021/12/31 11:56:31;;;;;;;1.77;0.70;;;25.10;39.90;;;;;;5028181;28;20030;-48
2021/12/31 11:58:57;;;;;;;2.53;0.50;;;25.10;40.00;;;;;;5027548;28;20172;-47
2021/12/31 12:01:41;;;;;;;2.38;0.80;;;25.10;40.00;;;;;;5016949;28;20076;-49
2021/12/31 12:04:26;;;;;;;2.20;0.65;;;25.00;39.90;;;;;;5007229;28;20077;-47
2021/12/31 12:07:29;;;;;;;2.78;0.65;;;25.00;39.90;;;;;;5007660;28;20033;-47
2021/12/31 12:09:55;;;;;;;4.35;0.90;;;25.10;39.90;;;;;;5007787;28;20105;-48
2021/12/31 12:12:21;;;;;;;2.17;0.63;;;25.10;40.00;;;;;;5006582;28;20117;-48
2021/12/31 12:14:56;;;;;;;1.40;0.50;;;25.10;40.00;;;;;;5007803;28;20382;-47
2021/12/31 12:17:45;;;;;;;1.88;0.30;;;25.00;40.00;;;;;;5007203;28;20026;-48
2021/12/31 12:20:13;;;;;;;2.00;0.50;;;25.00;40.00;;;;;;5007900;28;20064;-48
2021/12/31 12:22:56;;;;;;;1.67;0.50;;;25.00;40.10;;;;;;5007550;28;20105;-49
2021/12/31 12:25:22;;;;;;;;;;;25.00;40.10;;;;;;5007869;28;20097;-47
2021/12/31 12:27:59;;;;;;;2.05;0.50;;;25.10;40.00;;;;;;5004385;28;19917;-47
2021/12/31 12:30:25;;;;;;;1.95;0.57;;;25.10;40.90;;;;;;5007226;28;20113;-47
2021/12/31 12:33:07;;;;;;;1.83;0.50;;;25.10;40.10;;;;;;5006589;28;20034;-48
2021/12/31 12:35:36;;;;;;;1.10;0.40;;;25.10;40.20;;;;;;5007291;28;20203;-47
2021/12/31 12:38:11;;;;;;;2.72;0.60;;;25.10;40.20;;;;;;5007009;28;20024;-48
2021/12/31 12:40:42;;;;;;;1.88;0.65;;;25.10;40.10;;;;;;5007157;28;20049;-48
2021/12/31 12:43:17;;;;;;;1.10;0.47;;;25.10;40.00;;;;;;5006925;28;20029;-48
2021/12/31 12:45:48;;;;;;;0.90;0.40;;;25.10;40.10;;;;;;5013417;28;20113;-48
2021/12/31 12:48:15;;;;;;;2.00;0.57;;;25.10;40.00;;;;;;5007056;28;20667;-47
2021/12/31 12:50:50;;;;;;;2.45;0.50;;;25.10;40.00;;;;;;5028882;28;20040;-48
2021/12/31 12:53:23;;;;;;;2.03;0.75;;;25.20;39.90;;;;;;5046220;28;20043;-48
2021/12/31 12:55:59;;;;;;;1.70;0.40;;;25.20;39.90;;;;;;5046540;28;20486;-48
2021/12/31 12:58:25;;;;;;;2.28;0.70;;;25.20;39.80;;;;;;5044827;28;20462;-48